sensor_id;sensor_type;location;lat;lon;timestamp;P1;durP1;ratioP1;P2;durP2;ratioP2
15240;SDS011;7723;52.170;9.978;2022-10-22T00:00:12;12.52;;;7.35;;
15240;SDS011;7723;52.170;9.978;2022-10-22T00:02:43;13.75;;;6.18;;
15240;SDS011;7723;52.170;9.978;2022-10-22T00:05:10;11.20;;;7.57;;
15240;SDS011;7723;52.170;9.978;2022-10-22T00:07:38;12.93;;;7.55;;
15240;SDS011;7723;52.170;9.978;2022-10-22T00:10:07;9.80;;;6.82;;
15240;SDS011;7723;52.170;9.978;2022-10-22T00:12:34;9.93;;;6.85;;
15240;SDS011;7723;52.170;9.978;2022-10-22T00:15:01;12.30;;;7.43;;
15240;SDS011;7723;52.170;9.978;2022-10-22T00:17:29;12.73;;;6.90;;
15240;SDS011;7723;52.170;9.978;2022-10-22T00:19:56;12.25;;;6.85;;
15240;SDS011;7723;52.170;9.978;2022-10-22T00:22:23;11.80;;;6.68;;
15240;SDS011;7723;52.170;9.978;2022-10-22T00:24:50;6.57;;;5.60;;
15240;SDS011;7723;52.170;9.978;2022-10-22T00:27:19;9.57;;;6.25;;
15240;SDS011;7723;52.170;9.978;2022-10-22T00:29:46;10.20;;;6.57;;
15240;SDS011;7723;52.170;9.978;2022-10-22T00:32:13;12.38;;;7.28;;
15240;SDS011;7723;52.170;9.978;2022-10-22T00:34:40;9.70;;;6.85;;
15240;SDS011;7723;52.170;9.978;2022-10-22T00:37:08;9.07;;;6.45;;
15240;SDS011;7723;52.170;9.978;2022-10-22T00:39:35;9.15;;;6.30;;
15240;SDS011;7723;52.170;9.978;2022-10-22T00:42:02;9.55;;;6.40;;
15240;SDS011;7723;52.170;9.978;2022-10-22T00:47:31;8.68;;;6.28;;
15240;SDS011;7723;52.170;9.978;2022-10-22T00:50:00;7.95;;;6.28;;
15240;SDS011;7723;52.170;9.978;2022-10-22T00:52:29;10.02;;;6.47;;
15240;SDS011;7723;52.170;9.978;2022-10-22T00:54:57;11.57;;;6.70;;
15240;SDS011;7723;52.170;9.978;2022-10-22T00:57:26;10.88;;;6.80;;
15240;SDS011;7723;52.170;9.978;2022-10-22T00:59:53;10.43;;;6.95;;
15240;SDS011;7723;52.170;9.978;2022-10-22T01:02:23;8.50;;;6.35;;
15240;SDS011;7723;52.170;9.978;2022-10-22T01:04:51;8.82;;;6.18;;
15240;SDS011;7723;52.170;9.978;2022-10-22T01:07:19;12.10;;;7.07;;
15240;SDS011;7723;52.170;9.978;2022-10-22T01:09:51;10.35;;;7.07;;
15240;SDS011;7723;52.170;9.978;2022-10-22T01:12:31;8.70;;;6.70;;
15240;SDS011;7723;52.170;9.978;2022-10-22T01:15:09;10.63;;;6.97;;
15240;SDS011;7723;52.170;9.978;2022-10-22T01:17:44;8.82;;;5.93;;
15240;SDS011;7723;52.170;9.978;2022-10-22T01:20:21;12.00;;;6.45;;
15240;SDS011;7723;52.170;9.978;2022-10-22T01:23:07;9.48;;;6.38;;
15240;SDS011;7723;52.170;9.978;2022-10-22T01:25:46;12.07;;;6.95;;
15240;SDS011;7723;52.170;9.978;2022-10-22T01:28:21;7.85;;;5.97;;
15240;SDS011;7723;52.170;9.978;2022-10-22T01:30:55;10.20;;;6.28;;
15240;SDS011;7723;52.170;9.978;2022-10-22T01:33:24;10.02;;;6.55;;
15240;SDS011;7723;52.170;9.978;2022-10-22T01:35:53;13.25;;;7.25;;
15240;SDS011;7723;52.170;9.978;2022-10-22T01:38:21;10.27;;;6.55;;
15240;SDS011;7723;52.170;9.978;2022-10-22T01:40:50;9.75;;;6.38;;
15240;SDS011;7723;52.170;9.978;2022-10-22T01:43:18;9.63;;;6.60;;
15240;SDS011;7723;52.170;9.978;2022-10-22T01:45:46;12.07;;;6.75;;
15240;SDS011;7723;52.170;9.978;2022-10-22T01:48:23;11.25;;;7.38;;
15240;SDS011;7723;52.170;9.978;2022-10-22T01:51:02;11.20;;;7.60;;
15240;SDS011;7723;52.170;9.978;2022-10-22T01:53:43;13.07;;;7.78;;
15240;SDS011;7723;52.170;9.978;2022-10-22T01:56:20;10.38;;;7.30;;
15240;SDS011;7723;52.170;9.978;2022-10-22T01:59:02;12.48;;;7.38;;
15240;SDS011;7723;52.170;9.978;2022-10-22T02:01:34;11.70;;;6.93;;
15240;SDS011;7723;52.170;9.978;2022-10-22T02:04:09;10.68;;;7.30;;
15240;SDS011;7723;52.170;9.978;2022-10-22T02:06:41;10.65;;;6.00;;
15240;SDS011;7723;52.170;9.978;2022-10-22T02:09:11;9.98;;;6.78;;
15240;SDS011;7723;52.170;9.978;2022-10-22T02:11:41;10.20;;;7.07;;
15240;SDS011;7723;52.170;9.978;2022-10-22T02:14:09;10.38;;;6.90;;
15240;SDS011;7723;52.170;9.978;2022-10-22T02:16:39;12.95;;;7.85;;
15240;SDS011;7723;52.170;9.978;2022-10-22T02:19:13;10.95;;;7.25;;
15240;SDS011;7723;52.170;9.978;2022-10-22T02:21:45;10.55;;;6.47;;
15240;SDS011;7723;52.170;9.978;2022-10-22T02:24:12;11.68;;;6.85;;
15240;SDS011;7723;52.170;9.978;2022-10-22T02:26:40;11.10;;;6.35;;
15240;SDS011;7723;52.170;9.978;2022-10-22T02:29:14;10.10;;;6.43;;
15240;SDS011;7723;52.170;9.978;2022-10-22T02:31:45;9.48;;;6.57;;
15240;SDS011;7723;52.170;9.978;2022-10-22T02:34:18;8.70;;;6.32;;
15240;SDS011;7723;52.170;9.978;2022-10-22T02:36:49;11.70;;;6.20;;
15240;SDS011;7723;52.170;9.978;2022-10-22T02:39:17;8.15;;;6.20;;
15240;SDS011;7723;52.170;9.978;2022-10-22T02:41:46;9.07;;;5.85;;
15240;SDS011;7723;52.170;9.978;2022-10-22T02:44:13;9.40;;;6.85;;
15240;SDS011;7723;52.170;9.978;2022-10-22T02:46:41;10.40;;;6.82;;
15240;SDS011;7723;52.170;9.978;2022-10-22T02:49:09;13.00;;;6.70;;
15240;SDS011;7723;52.170;9.978;2022-10-22T02:51:38;10.52;;;6.85;;
15240;SDS011;7723;52.170;9.978;2022-10-22T02:54:05;11.77;;;6.70;;
15240;SDS011;7723;52.170;9.978;2022-10-22T02:56:32;11.80;;;7.07;;
15240;SDS011;7723;52.170;9.978;2022-10-22T02:59:00;9.65;;;6.38;;
15240;SDS011;7723;52.170;9.978;2022-10-22T03:01:27;11.80;;;7.22;;
15240;SDS011;7723;52.170;9.978;2022-10-22T03:03:54;8.70;;;6.13;;
15240;SDS011;7723;52.170;9.978;2022-10-22T03:06:21;9.45;;;6.28;;
15240;SDS011;7723;52.170;9.978;2022-10-22T03:08:50;9.95;;;6.03;;
15240;SDS011;7723;52.170;9.978;2022-10-22T03:11:17;10.43;;;6.70;;
15240;SDS011;7723;52.170;9.978;2022-10-22T03:13:44;8.57;;;6.15;;
15240;SDS011;7723;52.170;9.978;2022-10-22T03:16:12;8.00;;;5.93;;
15240;SDS011;7723;52.170;9.978;2022-10-22T03:18:39;7.63;;;5.75;;
15240;SDS011;7723;52.170;9.978;2022-10-22T03:21:08;10.80;;;6.95;;
15240;SDS011;7723;52.170;9.978;2022-10-22T03:23:38;8.98;;;6.55;;
15240;SDS011;7723;52.170;9.978;2022-10-22T03:26:09;9.27;;;6.38;;
15240;SDS011;7723;52.170;9.978;2022-10-22T03:28:39;9.57;;;6.28;;
15240;SDS011;7723;52.170;9.978;2022-10-22T03:31:07;8.10;;;5.70;;
15240;SDS011;7723;52.170;9.978;2022-10-22T03:33:34;10.25;;;6.00;;
15240;SDS011;7723;52.170;9.978;2022-10-22T03:36:01;8.70;;;5.65;;
15240;SDS011;7723;52.170;9.978;2022-10-22T03:38:29;8.73;;;5.75;;
15240;SDS011;7723;52.170;9.978;2022-10-22T03:40:56;8.40;;;5.50;;
15240;SDS011;7723;52.170;9.978;2022-10-22T03:43:25;8.90;;;6.05;;
15240;SDS011;7723;52.170;9.978;2022-10-22T03:45:53;8.50;;;5.65;;
15240;SDS011;7723;52.170;9.978;2022-10-22T03:48:20;9.63;;;6.00;;
15240;SDS011;7723;52.170;9.978;2022-10-22T03:50:48;10.85;;;6.60;;
15240;SDS011;7723;52.170;9.978;2022-10-22T03:53:15;11.30;;;6.53;;
15240;SDS011;7723;52.170;9.978;2022-10-22T03:55:42;11.10;;;6.57;;
15240;SDS011;7723;52.170;9.978;2022-10-22T03:58:09;10.68;;;6.13;;
15240;SDS011;7723;52.170;9.978;2022-10-22T04:00:38;9.10;;;6.28;;
15240;SDS011;7723;52.170;9.978;2022-10-22T04:03:05;9.57;;;6.57;;
15240;SDS011;7723;52.170;9.978;2022-10-22T04:05:36;8.40;;;5.82;;
15240;SDS011;7723;52.170;9.978;2022-10-22T04:08:06;10.95;;;5.93;;
15240;SDS011;7723;52.170;9.978;2022-10-22T04:10:33;10.75;;;5.82;;
15240;SDS011;7723;52.170;9.978;2022-10-22T04:13:00;11.88;;;6.07;;
15240;SDS011;7723;52.170;9.978;2022-10-22T04:15:27;10.13;;;6.32;;
15240;SDS011;7723;52.170;9.978;2022-10-22T04:17:56;8.57;;;5.70;;
15240;SDS011;7723;52.170;9.978;2022-10-22T04:20:23;9.85;;;5.85;;
15240;SDS011;7723;52.170;9.978;2022-10-22T04:22:50;8.88;;;5.80;;
15240;SDS011;7723;52.170;9.978;2022-10-22T04:25:17;9.00;;;5.72;;
15240;SDS011;7723;52.170;9.978;2022-10-22T04:27:44;12.48;;;6.35;;
15240;SDS011;7723;52.170;9.978;2022-10-22T04:30:12;7.57;;;5.47;;
15240;SDS011;7723;52.170;9.978;2022-10-22T04:32:39;7.63;;;5.25;;
15240;SDS011;7723;52.170;9.978;2022-10-22T04:35:08;10.40;;;5.25;;
15240;SDS011;7723;52.170;9.978;2022-10-22T04:37:35;6.80;;;4.63;;
15240;SDS011;7723;52.170;9.978;2022-10-22T04:40:02;10.18;;;5.13;;
15240;SDS011;7723;52.170;9.978;2022-10-22T04:42:30;8.32;;;5.10;;
15240;SDS011;7723;52.170;9.978;2022-10-22T04:44:57;6.13;;;4.65;;
15240;SDS011;7723;52.170;9.978;2022-10-22T04:47:24;6.07;;;4.95;;
15240;SDS011;7723;52.170;9.978;2022-10-22T04:49:51;7.85;;;5.03;;
15240;SDS011;7723;52.170;9.978;2022-10-22T04:52:20;9.52;;;5.63;;
15240;SDS011;7723;52.170;9.978;2022-10-22T04:54:47;6.63;;;5.05;;
15240;SDS011;7723;52.170;9.978;2022-10-22T04:57:14;8.57;;;4.88;;
15240;SDS011;7723;52.170;9.978;2022-10-22T04:59:41;8.07;;;4.90;;
15240;SDS011;7723;52.170;9.978;2022-10-22T05:02:08;6.07;;;4.63;;
15240;SDS011;7723;52.170;9.978;2022-10-22T05:04:36;6.80;;;5.03;;
15240;SDS011;7723;52.170;9.978;2022-10-22T05:07:03;9.65;;;5.70;;
15240;SDS011;7723;52.170;9.978;2022-10-22T05:09:31;9.77;;;5.82;;
15240;SDS011;7723;52.170;9.978;2022-10-22T05:11:58;8.57;;;5.97;;
15240;SDS011;7723;52.170;9.978;2022-10-22T05:14:26;9.05;;;5.78;;
15240;SDS011;7723;52.170;9.978;2022-10-22T05:16:53;9.40;;;6.18;;
15240;SDS011;7723;52.170;9.978;2022-10-22T05:19:21;9.02;;;6.15;;
15240;SDS011;7723;52.170;9.978;2022-10-22T05:21:50;8.85;;;5.70;;
15240;SDS011;7723;52.170;9.978;2022-10-22T05:24:18;7.57;;;5.93;;
15240;SDS011;7723;52.170;9.978;2022-10-22T05:26:48;8.05;;;5.55;;
15240;SDS011;7723;52.170;9.978;2022-10-22T05:29:16;9.18;;;6.35;;
15240;SDS011;7723;52.170;9.978;2022-10-22T05:31:43;13.23;;;7.35;;
15240;SDS011;7723;52.170;9.978;2022-10-22T05:34:11;11.43;;;7.35;;
15240;SDS011;7723;52.170;9.978;2022-10-22T05:36:38;13.43;;;7.40;;
15240;SDS011;7723;52.170;9.978;2022-10-22T05:39:05;11.73;;;7.22;;
15240;SDS011;7723;52.170;9.978;2022-10-22T05:41:33;8.95;;;6.45;;
15240;SDS011;7723;52.170;9.978;2022-10-22T05:44:03;11.30;;;6.53;;
15240;SDS011;7723;52.170;9.978;2022-10-22T05:46:34;11.07;;;7.30;;
15240;SDS011;7723;52.170;9.978;2022-10-22T05:49:02;13.07;;;6.68;;
15240;SDS011;7723;52.170;9.978;2022-10-22T05:51:32;11.57;;;7.03;;
15240;SDS011;7723;52.170;9.978;2022-10-22T05:54:01;11.30;;;7.15;;
15240;SDS011;7723;52.170;9.978;2022-10-22T05:56:30;13.68;;;6.93;;
15240;SDS011;7723;52.170;9.978;2022-10-22T05:58:57;12.32;;;6.90;;
15240;SDS011;7723;52.170;9.978;2022-10-22T06:01:27;9.73;;;6.90;;
15240;SDS011;7723;52.170;9.978;2022-10-22T06:03:56;12.30;;;6.75;;
15240;SDS011;7723;52.170;9.978;2022-10-22T06:06:25;10.05;;;6.10;;
15240;SDS011;7723;52.170;9.978;2022-10-22T06:08:55;10.63;;;7.15;;
15240;SDS011;7723;52.170;9.978;2022-10-22T06:11:27;13.27;;;7.05;;
15240;SDS011;7723;52.170;9.978;2022-10-22T06:13:54;12.88;;;7.35;;
15240;SDS011;7723;52.170;9.978;2022-10-22T06:16:21;13.13;;;6.93;;
15240;SDS011;7723;52.170;9.978;2022-10-22T06:18:50;11.98;;;8.38;;
15240;SDS011;7723;52.170;9.978;2022-10-22T06:21:17;12.38;;;8.23;;
15240;SDS011;7723;52.170;9.978;2022-10-22T06:23:45;16.05;;;7.95;;
15240;SDS011;7723;52.170;9.978;2022-10-22T06:26:12;12.85;;;8.55;;
15240;SDS011;7723;52.170;9.978;2022-10-22T06:28:39;16.20;;;8.00;;
15240;SDS011;7723;52.170;9.978;2022-10-22T06:31:07;14.73;;;8.48;;
15240;SDS011;7723;52.170;9.978;2022-10-22T06:33:34;13.07;;;8.35;;
15240;SDS011;7723;52.170;9.978;2022-10-22T06:36:09;12.30;;;8.38;;
15240;SDS011;7723;52.170;9.978;2022-10-22T06:38:37;12.48;;;8.27;;
15240;SDS011;7723;52.170;9.978;2022-10-22T06:41:05;13.13;;;8.20;;
15240;SDS011;7723;52.170;9.978;2022-10-22T06:43:33;13.48;;;9.02;;
15240;SDS011;7723;52.170;9.978;2022-10-22T06:46:01;11.20;;;7.97;;
15240;SDS011;7723;52.170;9.978;2022-10-22T06:48:31;13.07;;;7.90;;
15240;SDS011;7723;52.170;9.978;2022-10-22T06:51:00;14.25;;;7.40;;
15240;SDS011;7723;52.170;9.978;2022-10-22T06:53:30;11.07;;;7.10;;
15240;SDS011;7723;52.170;9.978;2022-10-22T06:55:57;11.52;;;7.50;;
15240;SDS011;7723;52.170;9.978;2022-10-22T06:58:24;12.57;;;6.93;;
15240;SDS011;7723;52.170;9.978;2022-10-22T07:00:59;15.43;;;7.05;;
15240;SDS011;7723;52.170;9.978;2022-10-22T07:03:27;10.63;;;7.63;;
15240;SDS011;7723;52.170;9.978;2022-10-22T07:05:54;11.13;;;7.30;;
15240;SDS011;7723;52.170;9.978;2022-10-22T07:08:24;10.15;;;6.95;;
15240;SDS011;7723;52.170;9.978;2022-10-22T07:10:53;10.80;;;7.25;;
15240;SDS011;7723;52.170;9.978;2022-10-22T07:13:21;9.77;;;6.43;;
15240;SDS011;7723;52.170;9.978;2022-10-22T07:15:50;8.75;;;6.88;;
15240;SDS011;7723;52.170;9.978;2022-10-22T07:18:19;9.45;;;6.47;;
15240;SDS011;7723;52.170;9.978;2022-10-22T07:20:46;10.57;;;6.78;;
15240;SDS011;7723;52.170;9.978;2022-10-22T07:23:13;10.35;;;6.82;;
15240;SDS011;7723;52.170;9.978;2022-10-22T07:25:41;7.32;;;5.93;;
15240;SDS011;7723;52.170;9.978;2022-10-22T07:28:09;9.93;;;6.20;;
15240;SDS011;7723;52.170;9.978;2022-10-22T07:30:38;10.80;;;6.00;;
15240;SDS011;7723;52.170;9.978;2022-10-22T07:33:05;10.48;;;5.90;;
15240;SDS011;7723;52.170;9.978;2022-10-22T07:35:35;6.47;;;5.20;;
15240;SDS011;7723;52.170;9.978;2022-10-22T07:38:04;6.95;;;5.15;;
15240;SDS011;7723;52.170;9.978;2022-10-22T07:40:31;7.47;;;4.97;;
15240;SDS011;7723;52.170;9.978;2022-10-22T07:42:59;8.18;;;4.40;;
15240;SDS011;7723;52.170;9.978;2022-10-22T07:45:28;7.85;;;4.70;;
15240;SDS011;7723;52.170;9.978;2022-10-22T07:47:55;6.78;;;4.50;;
15240;SDS011;7723;52.170;9.978;2022-10-22T07:50:23;5.72;;;3.75;;
15240;SDS011;7723;52.170;9.978;2022-10-22T07:52:50;5.20;;;3.85;;
15240;SDS011;7723;52.170;9.978;2022-10-22T07:55:18;5.00;;;3.60;;
15240;SDS011;7723;52.170;9.978;2022-10-22T07:57:45;5.80;;;3.30;;
15240;SDS011;7723;52.170;9.978;2022-10-22T08:00:13;4.38;;;3.15;;
15240;SDS011;7723;52.170;9.978;2022-10-22T08:02:42;4.38;;;3.00;;
15240;SDS011;7723;52.170;9.978;2022-10-22T08:05:09;4.22;;;2.88;;
15240;SDS011;7723;52.170;9.978;2022-10-22T08:07:37;4.43;;;3.00;;
15240;SDS011;7723;52.170;9.978;2022-10-22T08:10:05;5.45;;;3.15;;
15240;SDS011;7723;52.170;9.978;2022-10-22T08:12:34;5.55;;;3.17;;
15240;SDS011;7723;52.170;9.978;2022-10-22T08:15:02;3.58;;;2.80;;
15240;SDS011;7723;52.170;9.978;2022-10-22T08:17:29;3.78;;;3.00;;
15240;SDS011;7723;52.170;9.978;2022-10-22T08:19:58;4.57;;;2.90;;
15240;SDS011;7723;52.170;9.978;2022-10-22T08:22:25;6.70;;;3.38;;
15240;SDS011;7723;52.170;9.978;2022-10-22T08:24:52;7.47;;;3.30;;
15240;SDS011;7723;52.170;9.978;2022-10-22T08:27:20;4.18;;;3.05;;
15240;SDS011;7723;52.170;9.978;2022-10-22T08:29:47;4.25;;;2.97;;
15240;SDS011;7723;52.170;9.978;2022-10-22T08:32:14;6.30;;;2.72;;
15240;SDS011;7723;52.170;9.978;2022-10-22T08:34:41;4.10;;;3.03;;
15240;SDS011;7723;52.170;9.978;2022-10-22T08:37:10;6.35;;;2.95;;
15240;SDS011;7723;52.170;9.978;2022-10-22T08:39:38;5.43;;;2.72;;
15240;SDS011;7723;52.170;9.978;2022-10-22T08:42:23;5.15;;;3.38;;
15240;SDS011;7723;52.170;9.978;2022-10-22T08:45:17;5.25;;;3.17;;
15240;SDS011;7723;52.170;9.978;2022-10-22T08:47:56;4.10;;;2.80;;
15240;SDS011;7723;52.170;9.978;2022-10-22T08:50:34;5.75;;;2.58;;
15240;SDS011;7723;52.170;9.978;2022-10-22T08:53:10;3.25;;;2.63;;
15240;SDS011;7723;52.170;9.978;2022-10-22T08:55:39;4.68;;;2.45;;
15240;SDS011;7723;52.170;9.978;2022-10-22T08:58:10;6.32;;;2.58;;
15240;SDS011;7723;52.170;9.978;2022-10-22T09:00:46;3.13;;;2.15;;
15240;SDS011;7723;52.170;9.978;2022-10-22T09:03:24;2.28;;;1.90;;
15240;SDS011;7723;52.170;9.978;2022-10-22T09:06:01;3.63;;;2.25;;
15240;SDS011;7723;52.170;9.978;2022-10-22T09:08:38;3.22;;;2.20;;
15240;SDS011;7723;52.170;9.978;2022-10-22T09:11:08;3.10;;;1.90;;
15240;SDS011;7723;52.170;9.978;2022-10-22T09:13:45;3.40;;;2.15;;
15240;SDS011;7723;52.170;9.978;2022-10-22T09:16:15;7.32;;;2.25;;
15240;SDS011;7723;52.170;9.978;2022-10-22T09:18:46;3.45;;;1.45;;
15240;SDS011;7723;52.170;9.978;2022-10-22T09:21:25;4.13;;;1.55;;
15240;SDS011;7723;52.170;9.978;2022-10-22T09:24:03;3.58;;;2.20;;
15240;SDS011;7723;52.170;9.978;2022-10-22T09:26:36;2.85;;;2.20;;
15240;SDS011;7723;52.170;9.978;2022-10-22T09:29:05;4.05;;;1.85;;
15240;SDS011;7723;52.170;9.978;2022-10-22T09:31:38;6.53;;;2.50;;
15240;SDS011;7723;52.170;9.978;2022-10-22T09:34:05;2.53;;;1.85;;
15240;SDS011;7723;52.170;9.978;2022-10-22T09:36:33;2.40;;;1.85;;
15240;SDS011;7723;52.170;9.978;2022-10-22T09:39:00;2.50;;;2.30;;
15240;SDS011;7723;52.170;9.978;2022-10-22T09:41:29;2.33;;;1.92;;
15240;SDS011;7723;52.170;9.978;2022-10-22T09:43:57;4.85;;;2.40;;
15240;SDS011;7723;52.170;9.978;2022-10-22T09:46:26;3.45;;;2.17;;
15240;SDS011;7723;52.170;9.978;2022-10-22T09:48:59;5.35;;;2.60;;
15240;SDS011;7723;52.170;9.978;2022-10-22T09:51:39;4.60;;;2.50;;
15240;SDS011;7723;52.170;9.978;2022-10-22T09:54:15;4.50;;;2.70;;
15240;SDS011;7723;52.170;9.978;2022-10-22T09:56:46;3.45;;;2.10;;
15240;SDS011;7723;52.170;9.978;2022-10-22T09:59:17;3.25;;;2.20;;
15240;SDS011;7723;52.170;9.978;2022-10-22T10:01:55;3.15;;;2.42;;
15240;SDS011;7723;52.170;9.978;2022-10-22T10:04:27;4.03;;;2.83;;
15240;SDS011;7723;52.170;9.978;2022-10-22T10:06:58;3.10;;;2.10;;
15240;SDS011;7723;52.170;9.978;2022-10-22T10:09:27;5.05;;;2.55;;
15240;SDS011;7723;52.170;9.978;2022-10-22T10:11:58;4.90;;;2.50;;
15240;SDS011;7723;52.170;9.978;2022-10-22T10:14:35;3.45;;;1.98;;
15240;SDS011;7723;52.170;9.978;2022-10-22T10:17:11;5.97;;;2.20;;
15240;SDS011;7723;52.170;9.978;2022-10-22T10:19:48;5.40;;;2.33;;
15240;SDS011;7723;52.170;9.978;2022-10-22T10:22:30;3.05;;;2.08;;
15240;SDS011;7723;52.170;9.978;2022-10-22T10:25:26;3.40;;;2.00;;
15240;SDS011;7723;52.170;9.978;2022-10-22T10:28:03;6.57;;;1.95;;
15240;SDS011;7723;52.170;9.978;2022-10-22T10:30:39;2.25;;;1.75;;
15240;SDS011;7723;52.170;9.978;2022-10-22T10:33:14;3.10;;;2.55;;
15240;SDS011;7723;52.170;9.978;2022-10-22T10:35:50;3.00;;;2.00;;
15240;SDS011;7723;52.170;9.978;2022-10-22T10:38:31;2.15;;;1.75;;
15240;SDS011;7723;52.170;9.978;2022-10-22T10:41:12;2.95;;;2.03;;
15240;SDS011;7723;52.170;9.978;2022-10-22T10:43:57;3.90;;;2.13;;
15240;SDS011;7723;52.170;9.978;2022-10-22T10:46:38;7.80;;;2.45;;
15240;SDS011;7723;52.170;9.978;2022-10-22T10:49:15;3.35;;;1.98;;
15240;SDS011;7723;52.170;9.978;2022-10-22T10:51:47;4.70;;;2.15;;
15240;SDS011;7723;52.170;9.978;2022-10-22T10:54:25;5.47;;;2.00;;
15240;SDS011;7723;52.170;9.978;2022-10-22T10:57:08;3.10;;;1.80;;
15240;SDS011;7723;52.170;9.978;2022-10-22T10:59:44;2.90;;;2.15;;
15240;SDS011;7723;52.170;9.978;2022-10-22T11:05:14;3.90;;;2.78;;
15240;SDS011;7723;52.170;9.978;2022-10-22T11:07:55;3.60;;;1.90;;
15240;SDS011;7723;52.170;9.978;2022-10-22T11:10:27;2.97;;;2.05;;
15240;SDS011;7723;52.170;9.978;2022-10-22T11:13:00;3.50;;;2.22;;
15240;SDS011;7723;52.170;9.978;2022-10-22T11:15:36;3.08;;;2.03;;
15240;SDS011;7723;52.170;9.978;2022-10-22T11:18:10;4.30;;;2.25;;
15240;SDS011;7723;52.170;9.978;2022-10-22T11:20:48;2.80;;;2.10;;
15240;SDS011;7723;52.170;9.978;2022-10-22T11:23:22;3.83;;;2.05;;
15240;SDS011;7723;52.170;9.978;2022-10-22T11:25:54;5.70;;;2.40;;
15240;SDS011;7723;52.170;9.978;2022-10-22T11:28:24;3.78;;;2.20;;
15240;SDS011;7723;52.170;9.978;2022-10-22T11:30:58;4.53;;;2.20;;
15240;SDS011;7723;52.170;9.978;2022-10-22T11:33:32;4.50;;;2.70;;
15240;SDS011;7723;52.170;9.978;2022-10-22T11:36:05;5.63;;;2.72;;
15240;SDS011;7723;52.170;9.978;2022-10-22T11:38:34;5.55;;;2.20;;
15240;SDS011;7723;52.170;9.978;2022-10-22T11:41:04;10.73;;;2.90;;
15240;SDS011;7723;52.170;9.978;2022-10-22T11:43:50;4.93;;;2.33;;
15240;SDS011;7723;52.170;9.978;2022-10-22T11:46:26;3.75;;;2.58;;
15240;SDS011;7723;52.170;9.978;2022-10-22T11:49:13;3.85;;;2.72;;
15240;SDS011;7723;52.170;9.978;2022-10-22T11:51:44;4.05;;;2.80;;
15240;SDS011;7723;52.170;9.978;2022-10-22T11:54:27;4.82;;;2.58;;
15240;SDS011;7723;52.170;9.978;2022-10-22T11:56:57;5.22;;;3.03;;
15240;SDS011;7723;52.170;9.978;2022-10-22T11:59:46;3.53;;;2.40;;
15240;SDS011;7723;52.170;9.978;2022-10-22T12:02:35;7.80;;;2.70;;
15240;SDS011;7723;52.170;9.978;2022-10-22T12:05:29;3.58;;;2.38;;
15240;SDS011;7723;52.170;9.978;2022-10-22T12:08:01;3.80;;;2.50;;
15240;SDS011;7723;52.170;9.978;2022-10-22T12:10:47;3.38;;;1.92;;
15240;SDS011;7723;52.170;9.978;2022-10-22T12:13:23;3.00;;;2.25;;
15240;SDS011;7723;52.170;9.978;2022-10-22T12:15:55;4.22;;;2.10;;
15240;SDS011;7723;52.170;9.978;2022-10-22T12:18:26;3.30;;;2.10;;
15240;SDS011;7723;52.170;9.978;2022-10-22T12:20:56;5.35;;;2.42;;
15240;SDS011;7723;52.170;9.978;2022-10-22T12:23:25;5.40;;;2.05;;
15240;SDS011;7723;52.170;9.978;2022-10-22T12:25:55;7.68;;;2.40;;
15240;SDS011;7723;52.170;9.978;2022-10-22T12:28:23;7.30;;;2.38;;
15240;SDS011;7723;52.170;9.978;2022-10-22T12:30:50;3.03;;;1.92;;
15240;SDS011;7723;52.170;9.978;2022-10-22T12:33:20;5.88;;;2.53;;
15240;SDS011;7723;52.170;9.978;2022-10-22T12:35:50;5.65;;;1.85;;
15240;SDS011;7723;52.170;9.978;2022-10-22T12:38:22;5.28;;;1.98;;
15240;SDS011;7723;52.170;9.978;2022-10-22T12:40:50;5.07;;;1.88;;
15240;SDS011;7723;52.170;9.978;2022-10-22T12:43:23;4.63;;;1.80;;
15240;SDS011;7723;52.170;9.978;2022-10-22T12:45:51;4.60;;;2.10;;
15240;SDS011;7723;52.170;9.978;2022-10-22T12:48:21;2.40;;;1.67;;
15240;SDS011;7723;52.170;9.978;2022-10-22T12:50:50;8.60;;;2.65;;
15240;SDS011;7723;52.170;9.978;2022-10-22T12:53:21;3.50;;;2.13;;
15240;SDS011;7723;52.170;9.978;2022-10-22T12:55:54;3.47;;;2.05;;
15240;SDS011;7723;52.170;9.978;2022-10-22T12:58:25;2.80;;;1.55;;
15240;SDS011;7723;52.170;9.978;2022-10-22T13:00:55;4.15;;;2.00;;
15240;SDS011;7723;52.170;9.978;2022-10-22T13:03:29;4.00;;;1.67;;
15240;SDS011;7723;52.170;9.978;2022-10-22T13:06:10;5.60;;;2.40;;
15240;SDS011;7723;52.170;9.978;2022-10-22T13:08:38;3.95;;;2.42;;
15240;SDS011;7723;52.170;9.978;2022-10-22T13:11:07;4.55;;;1.65;;
15240;SDS011;7723;52.170;9.978;2022-10-22T13:13:41;4.07;;;1.80;;
15240;SDS011;7723;52.170;9.978;2022-10-22T13:16:14;1.92;;;1.27;;
15240;SDS011;7723;52.170;9.978;2022-10-22T13:18:44;3.20;;;1.60;;
15240;SDS011;7723;52.170;9.978;2022-10-22T13:21:23;4.55;;;1.70;;
15240;SDS011;7723;52.170;9.978;2022-10-22T13:23:54;4.95;;;2.30;;
15240;SDS011;7723;52.170;9.978;2022-10-22T13:26:24;2.03;;;1.52;;
15240;SDS011;7723;52.170;9.978;2022-10-22T13:28:56;5.10;;;1.83;;
15240;SDS011;7723;52.170;9.978;2022-10-22T13:31:27;3.60;;;1.70;;
15240;SDS011;7723;52.170;9.978;2022-10-22T13:33:59;2.95;;;2.20;;
15240;SDS011;7723;52.170;9.978;2022-10-22T13:36:30;4.97;;;1.55;;
15240;SDS011;7723;52.170;9.978;2022-10-22T13:38:58;6.13;;;1.80;;
15240;SDS011;7723;52.170;9.978;2022-10-22T13:41:25;5.75;;;1.58;;
15240;SDS011;7723;52.170;9.978;2022-10-22T13:43:55;4.43;;;1.98;;
15240;SDS011;7723;52.170;9.978;2022-10-22T13:46:23;3.42;;;1.77;;
15240;SDS011;7723;52.170;9.978;2022-10-22T13:48:53;2.85;;;1.67;;
15240;SDS011;7723;52.170;9.978;2022-10-22T13:51:26;3.50;;;1.35;;
15240;SDS011;7723;52.170;9.978;2022-10-22T13:53:59;3.20;;;1.50;;
15240;SDS011;7723;52.170;9.978;2022-10-22T13:56:27;3.13;;;1.90;;
15240;SDS011;7723;52.170;9.978;2022-10-22T13:58:54;3.17;;;1.52;;
15240;SDS011;7723;52.170;9.978;2022-10-22T14:01:22;2.92;;;1.52;;
15240;SDS011;7723;52.170;9.978;2022-10-22T14:03:51;3.03;;;1.77;;
15240;SDS011;7723;52.170;9.978;2022-10-22T14:06:24;2.85;;;1.40;;
15240;SDS011;7723;52.170;9.978;2022-10-22T14:08:55;2.33;;;1.50;;
15240;SDS011;7723;52.170;9.978;2022-10-22T14:11:23;3.33;;;1.60;;
15240;SDS011;7723;52.170;9.978;2022-10-22T14:13:51;2.88;;;1.50;;
15240;SDS011;7723;52.170;9.978;2022-10-22T14:16:19;1.35;;;1.13;;
15240;SDS011;7723;52.170;9.978;2022-10-22T14:18:48;2.55;;;1.30;;
15240;SDS011;7723;52.170;9.978;2022-10-22T14:21:16;2.85;;;1.48;;
15240;SDS011;7723;52.170;9.978;2022-10-22T14:23:46;5.10;;;1.40;;
15240;SDS011;7723;52.170;9.978;2022-10-22T14:26:17;2.00;;;1.10;;
15240;SDS011;7723;52.170;9.978;2022-10-22T14:28:47;2.70;;;1.20;;
15240;SDS011;7723;52.170;9.978;2022-10-22T14:31:15;5.20;;;1.33;;
15240;SDS011;7723;52.170;9.978;2022-10-22T14:33:42;2.47;;;1.30;;
15240;SDS011;7723;52.170;9.978;2022-10-22T14:36:10;3.47;;;1.33;;
15240;SDS011;7723;52.170;9.978;2022-10-22T14:38:39;3.63;;;1.70;;
15240;SDS011;7723;52.170;9.978;2022-10-22T14:41:13;4.28;;;1.42;;
15240;SDS011;7723;52.170;9.978;2022-10-22T14:43:43;3.85;;;1.50;;
15240;SDS011;7723;52.170;9.978;2022-10-22T14:46:11;4.25;;;1.58;;
15240;SDS011;7723;52.170;9.978;2022-10-22T14:48:39;2.42;;;1.50;;
15240;SDS011;7723;52.170;9.978;2022-10-22T14:51:08;2.58;;;1.42;;
15240;SDS011;7723;52.170;9.978;2022-10-22T14:53:38;5.47;;;1.60;;
15240;SDS011;7723;52.170;9.978;2022-10-22T14:56:05;3.25;;;1.50;;
15240;SDS011;7723;52.170;9.978;2022-10-22T14:58:34;3.95;;;2.17;;
15240;SDS011;7723;52.170;9.978;2022-10-22T15:01:01;2.88;;;1.60;;
15240;SDS011;7723;52.170;9.978;2022-10-22T15:03:29;3.20;;;1.50;;
15240;SDS011;7723;52.170;9.978;2022-10-22T15:05:56;3.22;;;1.88;;
15240;SDS011;7723;52.170;9.978;2022-10-22T15:08:23;3.08;;;1.35;;
15240;SDS011;7723;52.170;9.978;2022-10-22T15:10:57;3.90;;;1.63;;
15240;SDS011;7723;52.170;9.978;2022-10-22T15:13:25;3.60;;;1.92;;
15240;SDS011;7723;52.170;9.978;2022-10-22T15:15:55;2.80;;;1.70;;
15240;SDS011;7723;52.170;9.978;2022-10-22T15:18:22;3.55;;;2.20;;
15240;SDS011;7723;52.170;9.978;2022-10-22T15:20:53;8.35;;;2.20;;
15240;SDS011;7723;52.170;9.978;2022-10-22T15:23:22;4.40;;;2.17;;